Time;durP1;ratioP1;P1;durP2;ratioP2;P2;SDS_P1;SDS_P2;PMS_P1;PMS_P2;Temp;Humidity;BMP_temperature;BMP_pressure;BME280_temperature;BME280_humidity;BME280_pressure;Samples;Min_cycle;Max_cycle;Signal;HPM_P1;HPM_P2
2022/01/22 00:00:27;;;;;;;15.38;6.72;;;;;;;-2.21;100.00;94335.41;2089788;28;20033;-81
2022/01/22 00:01:35;;;;;;;15.18;6.05;;;;;;;-2.14;100.00;94341.00;2092067;28;20438;-80
2022/01/22 00:02:36;;;;;;;19.45;5.72;;;;;;;-2.14;100.00;94337.59;2099210;28;20032;-81
2022/01/22 00:03:38;;;;;;;17.33;5.97;;;;;;;-2.14;100.00;94338.38;2089631;28;20110;-82
2022/01/22 00:04:39;;;;;;;14.45;5.70;;;;;;;-2.22;100.00;94336.50;2081699;28;20406;-82
2022/01/22 00:05:41;;;;;;;13.50;5.57;;;;;;;-2.14;100.00;94333.13;2089962;28;20104;-82
2022/01/22 00:06:44;;;;;;;14.02;5.90;;;;;;;-1.98;100.00;94333.44;2089829;28;20033;-82
2022/01/22 00:07:45;;;;;;;14.02;5.20;;;;;;;-1.98;100.00;94332.69;2082301;28;20027;-83
2022/01/22 00:08:46;;;;;;;16.58;5.55;;;;;;;-1.98;100.00;94333.44;2089739;28;20410;-82
2022/01/22 00:09:52;;;;;;;13.05;5.05;;;;;;;-1.93;100.00;94335.16;2089933;28;20031;-81
2022/01/22 00:10:56;;;;;;;17.98;5.22;;;;;;;-2.08;100.00;94342.38;2082234;28;20033;-83
2022/01/22 00:11:59;;;;;;;11.80;4.63;;;;;;;-2.06;100.00;94339.47;2082375;28;20033;-82
2022/01/22 00:14:24;;;;;;;15.00;6.35;;;;;;;-2.22;100.00;94333.88;2083196;28;20026;-82
2022/01/22 00:15:28;;;;;;;12.55;5.05;;;;;;;-2.15;100.00;94325.56;2084049;28;20029;-82
2022/01/22 00:16:29;;;;;;;13.07;5.70;;;;;;;-2.24;100.00;94330.78;2074179;28;20427;-82
2022/01/22 00:17:32;;;;;;;14.27;5.28;;;;;;;-2.15;100.00;94333.41;2073400;28;20033;-82
2022/01/22 00:18:38;;;;;;;14.20;4.85;;;;;;;-2.13;100.00;94326.81;2081833;28;20032;-81
2022/01/22 00:19:39;;;;;;;13.98;5.70;;;;;;;-2.16;100.00;94327.41;2090237;28;20017;-82
2022/01/22 00:20:41;;;;;;;12.02;5.25;;;;;;;-2.25;100.00;94320.63;2089719;28;20458;-82
2022/01/22 00:21:45;;;;;;;12.75;5.28;;;;;;;-2.23;100.00;94332.34;2081619;28;20387;-83
2022/01/22 00:22:50;;;;;;;12.90;5.40;;;;;;;-2.20;100.00;94320.47;2081313;28;20027;-82
2022/01/22 00:23:56;;;;;;;19.88;4.88;;;;;;;-2.24;100.00;94322.16;2088800;28;20103;-82
2022/01/22 00:25:01;;;;;;;9.40;4.50;;;;;;;-2.29;100.00;94323.06;2088452;28;20029;-82
2022/01/22 00:26:02;;;;;;;13.35;5.20;;;;;;;-2.32;100.00;94323.69;2073321;28;20026;-83
2022/01/22 00:27:05;;;;;;;14.02;5.20;;;;;;;-2.23;100.00;94329.72;2080225;28;20022;-82
2022/01/22 00:28:06;;;;;;;13.52;4.95;;;;;;;-2.21;100.00;94324.19;2072682;28;20391;-83
2022/01/22 00:29:10;;;;;;;15.55;5.30;;;;;;;-2.25;100.00;94325.84;2081415;28;20757;-83
2022/01/22 00:30:19;;;;;;;12.88;5.15;;;;;;;-2.26;100.00;94319.09;2089596;28;20541;-83
2022/01/22 00:31:20;;;;;;;12.10;5.32;;;;;;;-2.21;100.00;94324.19;2095540;28;20029;-83
2022/01/22 00:32:22;;;;;;;15.43;4.75;;;;;;;-2.24;100.00;94325.53;2088947;28;20056;-83
2022/01/22 00:33:23;;;;;;;13.80;5.60;;;;;;;-2.22;100.00;94323.41;2072939;28;20021;-82
2022/01/22 00:34:24;;;;;;;11.15;5.03;;;;;;;-2.20;100.00;94320.47;2072893;28;20116;-83
2022/01/22 00:35:25;;;;;;;13.95;5.40;;;;;;;-2.24;100.00;94330.78;2081082;28;20470;-83
2022/01/22 00:36:26;;;;;;;9.65;5.22;;;;;;;-2.25;100.00;94318.78;2072875;28;20395;-82
2022/01/22 00:37:27;;;;;;;13.40;5.18;;;;;;;-2.27;100.00;94326.16;2072889;28;20033;-83
2022/01/22 00:38:28;;;;;;;15.35;5.57;;;;;;;-2.25;100.00;94326.63;2074325;28;20025;-83
2022/01/22 00:39:30;;;;;;;14.55;5.18;;;;;;;-2.18;100.00;94328.81;2072478;28;20053;-83
2022/01/22 00:40:31;;;;;;;12.82;4.85;;;;;;;-2.14;100.00;94330.50;2079035;28;20029;-83
2022/01/22 00:41:32;;;;;;;14.18;4.90;;;;;;;-2.21;100.00;94330.19;2089423;28;20461;-82
2022/01/22 00:42:34;;;;;;;10.65;5.22;;;;;;;-2.11;100.00;94335.16;2081297;28;20033;-83
2022/01/22 00:43:35;;;;;;;18.40;5.10;;;;;;;-2.16;100.00;94334.50;2081423;28;20017;-83
2022/01/22 00:44:36;;;;;;;13.65;5.78;;;;;;;-2.20;100.00;94338.81;2073081;28;20072;-81
2022/01/22 00:45:42;;;;;;;12.70;5.00;;;;;;;-2.21;100.00;94332.78;2086277;28;20044;-81
2022/01/22 00:46:43;;;;;;;12.30;5.15;;;;;;;-2.22;100.00;94331.25;2085225;28;20052;-81
2022/01/22 00:47:44;;;;;;;14.00;4.82;;;;;;;-2.23;100.00;94324.50;2085112;28;20056;-80
2022/01/22 00:48:45;;;;;;;11.40;5.47;;;;;;;-2.22;100.00;94323.41;2077644;28;20028;-81
2022/01/22 00:49:47;;;;;;;9.35;4.68;;;;;;;-2.20;100.00;94320.47;2080886;28;20030;-81
2022/01/22 00:50:51;;;;;;;7.93;4.97;;;;;;;-2.20;100.00;94317.84;2085191;28;20027;-81
2022/01/22 00:51:52;;;;;;;10.90;4.65;;;;;;;-2.19;100.00;94324.66;2086817;28;20103;-81
2022/01/22 00:52:53;;;;;;;10.73;5.18;;;;;;;-2.27;100.00;94318.31;2073324;28;20467;-81
2022/01/22 00:54:01;;;;;;;11.68;5.35;;;;;;;-2.22;100.00;94314.78;2081175;28;20025;-82
2022/01/22 00:55:08;;;;;;;12.13;5.10;;;;;;;-2.28;100.00;94307.06;2082217;28;20026;-82
2022/01/22 00:56:15;;;;;;;11.90;5.38;;;;;;;-2.30;100.00;94314.44;2090046;28;20024;-81
2022/01/22 00:57:23;;;;;;;13.18;4.97;;;;;;;-2.29;100.00;94309.97;2090338;28;20055;-81
2022/01/22 00:58:29;;;;;;;9.43;4.25;;;;;;;-2.29;100.00;94302.88;2089499;28;20024;-80
2022/01/22 00:59:37;;;;;;;13.65;5.18;;;;;;;-2.28;100.00;94298.44;2081891;28;20025;-82
2022/01/22 01:00:45;;;;;;;15.20;4.85;;;;;;;-2.29;100.00;94307.34;2082150;28;20025;-80
2022/01/22 01:01:49;;;;;;;13.02;5.18;;;;;;;-2.18;100.00;94306.00;2074891;28;20014;-81
2022/01/22 01:02:55;;;;;;;10.85;4.63;;;;;;;-2.26;100.00;94309.38;2082179;28;20414;-80
2022/01/22 01:04:01;;;;;;;11.75;4.60;;;;;;;-2.18;100.00;94297.38;2090031;28;20021;-81
2022/01/22 01:05:05;;;;;;;13.07;5.22;;;;;;;-2.15;100.00;94297.56;2081935;28;20035;-80
2022/01/22 01:06:06;;;;;;;8.25;3.90;;;;;;;-2.16;100.00;94311.69;2074058;28;20481;-81
2022/01/22 01:07:08;;;;;;;9.32;4.75;;;;;;;-2.25;100.00;94299.66;2089337;28;20116;-81
2022/01/22 01:08:09;;;;;;;12.77;5.43;;;;;;;-2.25;100.00;94308.28;2089346;28;20470;-80
2022/01/22 01:09:23;;;;;;;7.45;3.63;;;;;;;-2.29;100.00;94302.13;2089440;28;20032;-80
2022/01/22 01:10:24;;;;;;;13.05;4.55;;;;;;;-2.29;100.00;94305.50;2092627;28;20053;-81
2022/01/22 01:11:28;;;;;;;10.20;3.70;;;;;;;-2.28;100.00;94304.47;2089186;28;20017;-81
2022/01/22 01:12:30;;;;;;;8.70;4.03;;;;;;;-2.20;100.00;94304.75;2082004;28;20372;-81
2022/01/22 01:13:40;;;;;;;7.53;3.30;;;;;;;-2.12;100.00;94306.63;2081401;28;20065;-80
2022/01/22 01:14:49;;;;;;;6.93;3.53;;;;;;;-2.08;100.00;94308.31;2091902;28;20039;-80
2022/01/22 01:15:58;;;;;;;13.18;3.60;;;;;;;-2.10;100.00;94309.72;2090243;28;20033;-80
2022/01/22 01:32:49;;;;;;;9.85;3.10;;;;;;;-2.15;100.00;94325.56;2100023;28;20070;-81
2022/01/22 01:33:58;;;;;;;7.63;2.95;;;;;;;-1.96;100.00;94314.81;2091210;28;20029;-82
2022/01/22 01:35:00;;;;;;;6.60;3.63;;;;;;;-1.98;100.00;94311.72;2090097;28;20025;-81
2022/01/22 01:36:02;;;;;;;11.55;3.67;;;;;;;-2.05;100.00;94312.19;2081294;28;20479;-80
2022/01/22 01:37:03;;;;;;;6.35;3.28;;;;;;;-2.09;100.00;94303.41;2089189;28;20140;-81
2022/01/22 01:38:05;;;;;;;17.27;3.90;;;;;;;-2.14;100.00;94309.56;2080863;28;20108;-81
2022/01/22 01:39:12;;;;;;;9.27;3.53;;;;;;;-2.10;100.00;94301.88;2089520;28;20121;-80
2022/01/22 01:40:17;;;;;;;9.73;3.22;;;;;;;-2.13;100.00;94305.84;2097430;28;20476;-80
2022/01/22 01:41:50;;;;;;;6.68;2.97;;;;;;;-2.13;100.00;94305.09;2089917;28;20017;-81
2022/01/22 01:43:42;;;;;;;8.65;3.00;;;;;;;-2.00;100.00;94306.03;2097338;28;20520;-80
2022/01/22 01:44:46;;;;;;;12.63;3.05;;;;;;;-1.93;100.00;94308.94;2089158;28;20025;-80
2022/01/22 01:45:47;;;;;;;9.30;2.97;;;;;;;-2.01;100.00;94300.03;2090120;28;20016;-81
2022/01/22 01:47:00;;;;;;;9.02;2.97;;;;;;;-2.11;100.00;94302.91;2088907;28;20048;-80
2022/01/22 01:48:07;;;;;;;9.27;3.13;;;;;;;-2.08;100.00;94308.31;2097047;28;20024;-80
2022/01/22 01:49:09;;;;;;;8.40;3.20;;;;;;;-2.00;100.00;94308.66;2097251;28;20138;-80
2022/01/22 01:50:17;;;;;;;8.73;2.88;;;;;;;-1.90;100.00;94316.22;2089101;28;20064;-80
2022/01/22 01:51:24;;;;;;;8.25;3.13;;;;;;;-1.78;100.00;94311.91;2094453;28;20028;-80
2022/01/22 01:52:41;;;;;;;10.50;3.28;;;;;;;-1.91;100.00;94312.81;2105588;28;20060;-80
2022/01/22 01:54:22;;;;;;;7.43;2.90;;;;;;;-1.99;100.00;94310.19;2105762;28;20024;-80
2022/01/22 01:55:11;;;;;;;10.25;2.72;;;;;;;-2.10;100.00;94307.88;2099602;28;20081;-80
2022/01/22 01:57:40;;;;;;;9.50;2.45;;;;;;;-2.10;100.00;94318.34;2078662;28;20143;-80
2022/01/22 01:58:42;;;;;;;7.30;3.35;;;;;;;-2.19;100.00;94309.72;2087371;28;20665;-79
2022/01/22 01:59:45;;;;;;;7.05;2.75;;;;;;;-2.20;100.00;94315.22;2080939;28;20044;-81
2022/01/22 02:00:48;;;;;;;6.20;2.95;;;;;;;-2.19;100.00;94322.03;2085808;28;20536;-80
2022/01/22 02:01:53;;;;;;;9.15;2.92;;;;;;;-2.14;100.00;94320.03;2089145;28;20029;-79
2022/01/22 02:02:54;;;;;;;5.18;2.83;;;;;;;-2.11;100.00;94316.81;2089487;28;20030;-80
2022/01/22 02:03:58;;;;;;;9.55;3.30;;;;;;;-2.15;100.00;94312.47;2080742;28;20120;-80
2022/01/22 02:04:58;;;;;;;5.25;2.72;;;;;;;-2.14;100.00;94308.78;2089250;28;20119;-80
2022/01/22 02:05:59;;;;;;;7.10;3.15;;;;;;;-2.12;100.00;94301.38;2089101;28;20152;-80
2022/01/22 02:07:00;;;;;;;9.25;3.08;;;;;;;-2.16;100.00;94309.09;2088914;28;20501;-81
2022/01/22 02:08:02;;;;;;;8.18;3.40;;;;;;;-2.18;100.00;94307.84;2089100;28;20024;-81
2022/01/22 02:10:53;;;;;;;4.68;2.38;;;;;;;-2.16;100.00;94309.09;2130675;27;20187;-80
2022/01/22 02:12:03;;;;;;;10.45;3.35;;;;;;;-2.23;100.00;94298.31;2112846;28;20485;-81
2022/01/22 02:23:45;;;;;;;5.28;3.00;;;;;;;-2.20;100.00;94299.53;2115279;28;20027;-81
2022/01/22 02:24:46;;;;;;;13.68;3.35;;;;;;;-2.14;100.00;94293.06;2104917;28;20024;-81
2022/01/22 02:25:48;;;;;;;7.38;3.40;;;;;;;-2.14;100.00;94296.47;2104481;28;20093;-81
2022/01/22 02:26:50;;;;;;;9.20;2.83;;;;;;;-2.12;100.00;94293.53;2104823;28;20082;-80
2022/01/22 02:27:51;;;;;;;8.10;3.15;;;;;;;-2.13;100.00;94294.63;2112868;28;20027;-80
2022/01/22 02:28:53;;;;;;;8.05;2.72;;;;;;;-2.11;100.00;94293.25;2104575;28;20380;-81
2022/01/22 02:29:54;;;;;;;8.95;2.95;;;;;;;-2.03;100.00;94296.94;2104484;28;20024;-80
2022/01/22 02:31:05;;;;;;;12.27;3.33;;;;;;;-1.90;100.00;94301.25;2096508;28;20020;-81
2022/01/22 02:32:52;;;;;;;6.55;2.80;;;;;;;-1.95;100.00;94298.03;2115676;28;20027;-81
2022/01/22 02:35:45;;;;;;;6.57;2.70;;;;;;;-1.85;100.00;94293.25;2115885;28;20071;-82
2022/01/22 02:36:59;;;;;;;6.38;2.70;;;;;;;-1.91;100.00;94294.47;2110768;28;20026;-81
2022/01/22 02:38:13;;;;;;;9.43;3.60;;;;;;;-1.90;100.00;94303.09;2107012;28;20028;-81
2022/01/22 02:39:23;;;;;;;5.07;3.03;;;;;;;-1.90;100.00;94303.09;2106064;28;20028;-81
2022/01/22 02:40:40;;;;;;;6.93;2.65;;;;;;;-1.86;100.00;94302.19;2100089;28;20393;-81
2022/01/22 02:41:52;;;;;;;10.48;3.70;;;;;;;-1.90;100.00;94296.00;2112726;28;20119;-81
2022/01/22 02:42:59;;;;;;;11.02;3.60;;;;;;;-1.59;100.00;94293.25;2099406;28;20115;-81
2022/01/22 02:44:01;;;;;;;4.00;3.10;;;;;;;-1.54;100.00;94298.34;2097641;28;20028;-81
2022/01/22 02:45:10;;;;;;;6.05;2.90;;;;;;;-1.82;100.00;94291.88;2096642;28;20473;-81
2022/01/22 02:46:15;;;;;;;5.60;3.20;;;;;;;-1.81;100.00;94296.03;2113846;28;20020;-80
2022/01/22 02:47:17;;;;;;;8.93;3.67;;;;;;;-1.85;100.00;94287.22;2104664;28;20444;-81
2022/01/22 02:48:18;;;;;;;8.10;2.67;;;;;;;-1.97;100.00;94287.09;2096574;28;20152;-81
2022/01/22 02:49:19;;;;;;;5.65;3.03;;;;;;;-1.97;100.00;94293.09;2096050;28;20028;-80
2022/01/22 02:50:21;;;;;;;6.43;3.00;;;;;;;-2.00;100.00;94298.19;2095880;28;20103;-81
2022/01/22 02:51:24;;;;;;;12.48;3.10;;;;;;;-1.99;100.00;94294.47;2104276;28;20422;-81
2022/01/22 02:52:39;;;;;;;6.78;3.53;;;;;;;-1.91;100.00;94302.34;2095845;28;20715;-80
2022/01/22 02:53:40;;;;;;;6.20;2.90;;;;;;;-1.84;100.00;94297.44;2103303;28;20024;-81
2022/01/22 02:54:41;;;;;;;8.15;3.30;;;;;;;-1.88;100.00;94295.72;2104094;28;20096;-81
2022/01/22 02:55:47;;;;;;;5.43;3.17;;;;;;;-1.89;100.00;94294.97;2104039;28;20016;-81
2022/01/22 02:56:48;;;;;;;12.20;3.40;;;;;;;-1.97;100.00;94294.94;2100912;28;20016;-81
2022/01/22 02:57:49;;;;;;;8.45;3.40;;;;;;;-1.92;100.00;94287.69;2095631;28;20025;-81
2022/01/22 02:58:52;;;;;;;6.32;3.75;;;;;;;-1.98;100.00;94296.00;2095841;28;20036;-81
2022/01/22 02:59:53;;;;;;;8.77;3.60;;;;;;;-1.96;100.00;94293.88;2096224;28;20027;-80
2022/01/22 03:00:54;;;;;;;8.48;3.25;;;;;;;-1.89;100.00;94300.19;2095878;28;20102;-80
2022/01/22 03:01:59;;;;;;;9.80;3.40;;;;;;;-1.97;100.00;94300.19;2104146;28;20039;-81
2022/01/22 03:03:04;;;;;;;8.35;3.45;;;;;;;-1.89;100.00;94296.78;2104712;28;20070;-81
2022/01/22 03:04:05;;;;;;;12.10;3.75;;;;;;;-2.02;100.00;94301.09;2102916;28;20031;-81
2022/01/22 03:05:07;;;;;;;9.60;3.47;;;;;;;-1.91;100.00;94301.56;2087389;28;20022;-81
2022/01/22 03:06:08;;;;;;;9.18;3.53;;;;;;;-1.81;100.00;94296.78;2087617;28;20029;-80
2022/01/22 03:07:11;;;;;;;6.72;3.00;;;;;;;-1.90;100.00;94300.50;2087639;28;20021;-82
2022/01/22 03:08:13;;;;;;;14.30;3.50;;;;;;;-1.92;100.00;94305.28;2087574;28;20132;-81
2022/01/22 03:09:17;;;;;;;10.88;2.95;;;;;;;-1.90;100.00;94309.13;2087876;28;20025;-80
2022/01/22 03:10:22;;;;;;;6.47;3.10;;;;;;;-1.81;100.00;94306.50;2095973;28;20044;-80
2022/01/22 03:11:29;;;;;;;6.75;3.50;;;;;;;-1.87;100.00;94303.28;2103998;28;20028;-80
2022/01/22 03:16:14;;;;;;;8.45;3.78;;;;;;;-1.78;100.00;94301.41;2097660;28;20039;-80
2022/01/22 03:18:33;;;;;;;6.10;2.90;;;;;;;-1.80;100.00;94300.97;2095478;28;20428;-81
2022/01/22 03:22:01;;;;;;;7.32;3.78;;;;;;;-1.74;100.00;94309.44;2098611;28;19962;-80
2022/01/22 03:23:12;;;;;;;10.82;3.20;;;;;;;-1.66;100.00;94306.06;2088387;28;20025;-80
2022/01/22 03:28:18;;;;;;;5.43;2.97;;;;;;;-1.57;100.00;94316.53;2106600;28;20491;-80
2022/01/22 03:29:32;;;;;;;7.10;3.00;;;;;;;-1.65;100.00;94325.16;2090127;28;20091;-80
2022/01/22 03:30:39;;;;;;;5.75;3.20;;;;;;;-1.63;100.00;94321.16;2077148;28;20477;-81
2022/01/22 03:31:45;;;;;;;4.95;3.33;;;;;;;-1.42;100.00;94316.06;2090805;28;20055;-81
2022/01/22 03:32:52;;;;;;;8.30;2.95;;;;;;;-1.45;100.00;94315.91;2082361;28;20028;-79
2022/01/22 03:33:53;;;;;;;8.82;3.42;;;;;;;-1.29;100.00;94309.09;2083598;28;20029;-80
2022/01/22 03:35:10;;;;;;;6.68;4.47;;;;;;;-1.43;100.00;94304.03;2090180;28;20481;-81
2022/01/22 03:36:11;;;;;;;11.50;3.53;;;;;;;-1.39;100.00;94306.81;2081702;28;20036;-80
2022/01/22 03:37:12;;;;;;;5.40;3.03;;;;;;;-1.40;100.00;94310.53;2081650;28;20021;-81
2022/01/22 03:38:13;;;;;;;7.20;3.70;;;;;;;-1.31;100.00;94303.41;2081843;28;20089;-80
2022/01/22 03:39:14;;;;;;;4.22;3.28;;;;;;;-1.46;100.00;94302.03;2089703;28;20040;-80
2022/01/22 03:40:15;;;;;;;7.05;3.88;;;;;;;-1.69;100.00;94295.41;2090045;28;20024;-80
2022/01/22 03:41:17;;;;;;;10.77;4.40;;;;;;;-1.71;100.00;94300.97;2090098;28;20052;-81
2022/01/22 03:42:21;;;;;;;7.32;3.65;;;;;;;-1.40;100.00;94292.94;2089299;28;20151;-80
2022/01/22 03:43:23;;;;;;;13.73;3.38;;;;;;;-1.60;100.00;94293.56;2089756;28;20429;-80
2022/01/22 03:44:24;;;;;;;6.93;4.20;;;;;;;-1.72;100.00;94293.41;2080973;28;20096;-80
2022/01/22 03:45:26;;;;;;;9.07;3.92;;;;;;;-1.76;100.00;94290.63;2081057;28;20055;-80
2022/01/22 03:46:27;;;;;;;6.63;3.53;;;;;;;-1.71;100.00;94294.94;2080462;28;20025;-81
2022/01/22 03:47:28;;;;;;;8.05;4.13;;;;;;;-1.65;100.00;94289.25;2072521;28;20360;-81
2022/01/22 03:48:29;;;;;;;9.25;3.97;;;;;;;-1.77;100.00;94291.72;2080965;28;20132;-80
2022/01/22 03:49:30;;;;;;;10.45;4.10;;;;;;;-1.79;100.00;94286.78;2089112;28;20021;-81
2022/01/22 03:50:31;;;;;;;6.60;4.43;;;;;;;-1.75;100.00;94286.94;2080889;28;20085;-81
2022/01/22 03:51:32;;;;;;;14.10;4.45;;;;;;;-1.70;100.00;94291.25;2072985;28;20040;-80
2022/01/22 03:52:32;;;;;;;10.98;4.80;;;;;;;-1.48;100.00;94288.47;2073279;28;20056;-80
2022/01/22 03:53:34;;;;;;;11.57;4.50;;;;;;;-1.41;100.00;94282.72;2073168;28;20026;-80
2022/01/22 03:54:35;;;;;;;11.30;4.68;;;;;;;-1.48;100.00;94288.47;2081213;28;20047;-81
2022/01/22 03:56:00;;;;;;;8.30;4.45;;;;;;;-1.54;100.00;94284.44;2089300;28;20021;-80
2022/01/22 03:57:02;;;;;;;9.30;4.60;;;;;;;-1.45;100.00;94293.06;2092915;28;20115;-81
2022/01/22 03:58:03;;;;;;;9.77;4.30;;;;;;;-1.28;100.00;94282.56;2090036;28;20074;-79
2022/01/22 03:59:05;;;;;;;10.25;4.65;;;;;;;-1.49;100.00;94288.75;2089747;28;20033;-80
2022/01/22 04:00:07;;;;;;;12.18;5.00;;;;;;;-1.59;100.00;94293.25;2073422;28;20088;-80
2022/01/22 04:03:33;;;;;;;9.55;4.68;;;;;;;-1.50;100.00;94284.59;2082141;28;20017;-80
2022/01/22 04:04:46;;;;;;;10.88;4.93;;;;;;;-1.61;100.00;94284.94;2083294;28;20562;-80
2022/01/22 04:06:31;;;;;;;11.60;4.97;;;;;;;-1.54;100.00;94290.47;2076606;28;20040;-81
2022/01/22 04:08:54;;;;;;;8.02;4.68;;;;;;;-1.37;100.00;94278.41;2080949;28;20087;-82
2022/01/22 04:10:01;;;;;;;11.73;4.95;;;;;;;-1.52;100.00;94277.06;2085290;28;20540;-80
2022/01/22 04:11:08;;;;;;;8.55;5.65;;;;;;;-1.60;100.00;94278.59;2083139;28;20029;-80
2022/01/22 04:12:14;;;;;;;14.85;5.00;;;;;;;-1.25;100.00;94270.69;2083067;28;20471;-80
2022/01/22 04:13:18;;;;;;;12.20;5.90;;;;;;;-1.52;100.00;94271.81;2091087;28;20030;-81
2022/01/22 04:14:25;;;;;;;9.73;5.55;;;;;;;-1.64;100.00;94272.44;2090164;28;20025;-79
2022/01/22 04:15:37;;;;;;;11.48;5.82;;;;;;;-1.77;100.00;94275.97;2090444;28;20438;-80
2022/01/22 04:16:56;;;;;;;11.70;5.45;;;;;;;-1.83;100.00;94275.38;2084309;28;20043;-81
2022/01/22 04:24:54;;;;;;;16.92;6.45;;;;;;;-1.67;100.00;94275.66;2100472;28;20036;-79
2022/01/22 04:26:10;;;;;;;11.98;5.72;;;;;;;-1.69;100.00;94279.69;2095163;28;20456;-80
2022/01/22 04:27:14;;;;;;;12.68;6.30;;;;;;;-1.61;100.00;94278.91;2085508;28;20025;-79
2022/01/22 04:28:16;;;;;;;13.23;6.50;;;;;;;-1.57;100.00;94275.38;2090400;28;20108;-80
2022/01/22 04:29:19;;;;;;;8.55;6.25;;;;;;;-1.64;100.00;94280.28;2089468;28;20025;-79
2022/01/22 04:30:28;;;;;;;12.60;6.55;;;;;;;-1.54;100.00;94273.97;2081841;28;20059;-81
2022/01/22 04:31:29;;;;;;;16.27;7.82;;;;;;;-1.56;100.00;94284.75;2082338;28;20017;-80
2022/01/22 04:32:32;;;;;;;17.30;7.43;;;;;;;-1.48;100.00;94279.81;2083382;28;20048;-80
2022/01/22 04:33:33;;;;;;;13.88;7.50;;;;;;;-1.58;100.00;94286.13;2088928;28;20028;-80
2022/01/22 04:34:34;;;;;;;16.40;8.20;;;;;;;-1.65;100.00;94285.84;2081712;28;20776;-81
2022/01/22 04:35:35;;;;;;;18.75;7.78;;;;;;;-1.43;100.00;94285.69;2089521;28;20039;-80
2022/01/22 04:36:36;;;;;;;22.42;7.97;;;;;;;-1.31;100.00;94285.06;2081239;28;20022;-81
2022/01/22 04:37:38;;;;;;;14.75;7.57;;;;;;;-1.09;100.00;94279.59;2081254;28;20025;-81
2022/01/22 04:38:39;;;;;;;19.15;7.93;;;;;;;-1.30;100.00;94287.34;2081726;28;20501;-80
2022/01/22 04:39:40;;;;;;;18.55;8.63;;;;;;;-1.34;100.00;94290.91;2089313;28;20135;-81
2022/01/22 04:40:41;;;;;;;14.25;8.68;;;;;;;-1.51;100.00;94286.44;2089514;28;20098;-80
2022/01/22 04:41:42;;;;;;;16.42;9.02;;;;;;;-1.56;100.00;94290.00;2089473;28;20075;-80
2022/01/22 04:42:43;;;;;;;16.98;9.32;;;;;;;-1.58;100.00;94286.13;2089613;28;20017;-80
2022/01/22 04:43:45;;;;;;;13.93;8.07;;;;;;;-1.60;100.00;94291.69;2081353;28;20025;-80
2022/01/22 04:47:46;;;;;;;19.60;9.02;;;;;;;-1.64;100.00;94282.91;2088856;28;20198;-81
2022/01/22 04:55:01;;;;;;;21.05;9.88;;;;;;;-1.38;100.00;94272.41;2103765;28;20020;-81
2022/01/22 04:56:02;;;;;;;28.00;10.60;;;;;;;-1.49;100.00;94279.06;2089412;28;20141;-81
2022/01/22 04:57:04;;;;;;;25.02;9.20;;;;;;;-1.64;100.00;94282.16;2089120;28;20078;-81
2022/01/22 04:58:06;;;;;;;20.33;10.57;;;;;;;-1.68;100.00;94279.38;2097542;28;20044;-81
2022/01/22 04:59:07;;;;;;;20.35;10.95;;;;;;;-1.70;100.00;94286.78;2089574;28;20049;-81
2022/01/22 05:00:12;;;;;;;20.25;10.10;;;;;;;-1.57;100.00;94288.47;2089257;28;20709;-80
2022/01/22 05:01:13;;;;;;;25.02;10.93;;;;;;;-1.49;100.00;94281.69;2090487;28;20028;-79
2022/01/22 05:02:14;;;;;;;26.27;10.88;;;;;;;-1.57;100.00;94277.22;2089191;28;20377;-81
2022/01/22 05:03:16;;;;;;;22.70;11.70;;;;;;;-1.63;100.00;94281.06;2081139;28;20021;-81
2022/01/22 05:04:17;;;;;;;29.85;10.25;;;;;;;-1.62;100.00;94288.63;2081027;28;20120;-80
2022/01/22 05:05:18;;;;;;;24.73;11.75;;;;;;;-1.48;100.00;94274.59;2089298;28;20366;-80
2022/01/22 05:06:19;;;;;;;26.05;11.40;;;;;;;-1.43;100.00;94279.66;2097358;28;20071;-79
2022/01/22 05:07:20;;;;;;;23.52;10.80;;;;;;;-1.41;100.00;94282.72;2089141;28;20028;-80
2022/01/22 05:08:34;;;;;;;24.45;10.65;;;;;;;-1.41;100.00;94280.88;2088675;28;20029;-81
2022/01/22 05:09:34;;;;;;;21.88;11.18;;;;;;;-1.50;100.00;94279.34;2088990;28;20409;-80
2022/01/22 05:10:35;;;;;;;26.50;11.07;;;;;;;-1.44;100.00;94278.91;2080731;28;20050;-80
2022/01/22 05:11:36;;;;;;;19.90;10.52;;;;;;;-1.57;100.00;94287.69;2081017;28;20060;-80
2022/01/22 05:12:37;;;;;;;32.45;12.90;;;;;;;-1.56;100.00;94282.13;2080860;28;20033;-80
2022/01/22 05:13:38;;;;;;;20.63;9.93;;;;;;;-1.56;100.00;94289.25;2080952;28;20080;-80
2022/01/22 05:14:39;;;;;;;24.42;11.13;;;;;;;-1.62;100.00;94293.88;2086015;28;20375;-81
2022/01/22 05:15:41;;;;;;;19.23;10.15;;;;;;;-1.41;100.00;94280.13;2081058;28;20079;-81
2022/01/22 05:16:42;;;;;;;20.13;11.15;;;;;;;-1.53;100.00;94286.78;2089245;28;20120;-80
2022/01/22 05:17:45;;;;;;;22.30;10.82;;;;;;;-1.59;100.00;94285.38;2081209;28;20028;-80
2022/01/22 05:18:55;;;;;;;25.80;11.00;;;;;;;-1.49;100.00;94288.75;2081570;28;20335;-80
2022/01/22 05:20:08;;;;;;;23.75;10.93;;;;;;;-1.52;100.00;94288.31;2090540;28;20116;-81
2022/01/22 05:21:13;;;;;;;21.40;10.35;;;;;;;-1.40;100.00;94292.94;2082496;28;20029;-81
2022/01/22 05:23:19;;;;;;;22.30;10.50;;;;;;;-1.44;100.00;94299.09;2081327;28;20025;-81
2022/01/22 05:23:46;;;;;;;22.58;11.23;;;;;;;-1.30;100.00;94294.44;2084268;28;20060;-82
2022/01/22 05:24:52;;;;;;;25.98;11.63;;;;;;;-1.14;100.00;94298.13;2081028;28;20032;-80
2022/01/22 05:25:58;;;;;;;23.45;11.27;;;;;;;-1.45;100.00;94300.16;2074033;28;20088;-81
2022/01/22 05:28:30;;;;;;;24.55;12.18;;;;;;;-1.30;100.00;94299.69;2097259;28;20126;-81
2022/01/22 05:29:59;;;;;;;29.02;11.52;;;;;;;-1.27;100.00;94293.84;2080821;28;20033;-83
2022/01/22 05:30:58;;;;;;;34.13;11.88;;;;;;;-1.28;100.00;94292.28;2083227;28;20094;-81
2022/01/22 05:33:15;;;;;;;28.50;12.65;;;;;;;-1.40;100.00;94306.03;2089058;28;20090;-80
2022/01/22 05:37:57;;;;;;;26.63;12.18;;;;;;;-1.56;100.00;94316.22;2091367;28;20572;-80
2022/01/22 05:38:58;;;;;;;27.23;12.27;;;;;;;-1.45;100.00;94316.66;2088805;28;20040;-81
2022/01/22 05:39:59;;;;;;;28.45;12.50;;;;;;;-1.54;100.00;94315.91;2088794;28;20029;-81
2022/01/22 05:41:00;;;;;;;28.15;12.00;;;;;;;-1.61;100.00;94313.00;2089146;28;20048;-81
2022/01/22 05:42:04;;;;;;;28.50;13.52;;;;;;;-1.52;100.00;94311.13;2088672;28;20025;-82
2022/01/22 05:43:05;;;;;;;29.45;13.45;;;;;;;-1.68;100.00;94318.69;2081489;28;20041;-80
2022/01/22 05:44:07;;;;;;;30.45;13.77;;;;;;;-1.43;100.00;94322.38;2097022;28;20766;-80
2022/01/22 05:45:08;;;;;;;26.83;13.60;;;;;;;-1.33;100.00;94322.06;2096923;28;20032;-81
2022/01/22 05:46:11;;;;;;;29.98;14.05;;;;;;;-1.50;100.00;94329.94;2096895;28;20020;-81
2022/01/22 05:47:14;;;;;;;25.75;12.73;;;;;;;-1.65;100.00;94325.94;2081089;28;20067;-81
2022/01/22 05:48:17;;;;;;;28.55;13.68;;;;;;;-1.50;100.00;94318.69;2089187;28;20027;-82
2022/01/22 05:49:23;;;;;;;33.33;14.00;;;;;;;-1.50;100.00;94326.53;2088974;28;20021;-81
2022/01/22 05:50:34;;;;;;;35.92;14.20;;;;;;;-1.56;100.00;94323.31;2080872;28;20022;-81
2022/01/22 05:51:39;;;;;;;30.83;16.58;;;;;;;-1.53;100.00;94333.97;2081425;28;20025;-80
2022/01/22 05:52:55;;;;;;;31.90;15.50;;;;;;;-1.67;100.00;94338.56;2081635;28;20415;-80
2022/01/22 05:59:48;;;;;;;36.30;15.75;;;;;;;-1.60;100.00;94333.66;2087357;28;20044;-80
2022/01/22 06:00:49;;;;;;;34.05;16.60;;;;;;;-1.43;100.00;94332.09;2088943;28;20032;-80
2022/01/22 06:01:50;;;;;;;35.55;20.23;;;;;;;-1.45;100.00;94336.88;2097165;28;20021;-81
2022/01/22 06:02:51;;;;;;;34.83;17.42;;;;;;;-1.60;100.00;94333.66;2080635;28;20118;-81
2022/01/22 06:03:52;;;;;;;37.60;14.15;;;;;;;-1.56;100.00;94334.56;2072665;28;20037;-81
2022/01/22 06:04:53;;;;;;;33.25;15.88;;;;;;;-1.60;100.00;94336.25;2080694;28;20521;-80
2022/01/22 06:05:54;;;;;;;43.17;21.20;;;;;;;-1.38;100.00;94334.56;2080657;28;20127;-81
2022/01/22 06:06:55;;;;;;;56.42;38.10;;;;;;;-1.50;100.00;94331.78;2080496;28;20025;-81
2022/01/22 06:07:56;;;;;;;42.42;23.15;;;;;;;-1.45;100.00;94334.25;2080785;28;20057;-81
2022/01/22 06:08:59;;;;;;;33.40;15.40;;;;;;;-1.55;100.00;94336.09;2088736;28;20033;-82
2022/01/22 06:11:08;;;;;;;36.08;18.17;;;;;;;-1.63;100.00;94336.88;2097273;28;20055;-82
2022/01/22 06:13:18;;;;;;;38.80;19.38;;;;;;;-1.67;100.00;94332.56;2097356;28;20044;-83
2022/01/22 06:14:19;;;;;;;41.35;21.30;;;;;;;-1.59;100.00;94332.56;2103640;28;20028;-82
2022/01/22 06:15:20;;;;;;;31.10;15.43;;;;;;;-1.29;100.00;94340.56;2105451;28;20024;-83
2022/01/22 06:16:23;;;;;;;35.60;16.58;;;;;;;-1.41;100.00;94335.19;2097246;28;20039;-83